sensor_id;sensor_type;location;lat;lon;timestamp;temperature;humidity
20005;DHT22;69160;45.498;-73.582;2023-04-24T00:00:58;20.70;63.60
20005;DHT22;69160;45.498;-73.582;2023-04-24T00:03:26;20.70;63.60
20005;DHT22;69160;45.498;-73.582;2023-04-24T00:05:54;20.80;63.60
20005;DHT22;69160;45.498;-73.582;2023-04-24T00:08:20;20.70;63.40
20005;DHT22;69160;45.498;-73.582;2023-04-24T00:10:48;20.80;63.50
20005;DHT22;69160;45.498;-73.582;2023-04-24T00:13:14;20.80;63.50
20005;DHT22;69160;45.498;-73.582;2023-04-24T00:15:40;20.80;63.50
20005;DHT22;69160;45.498;-73.582;2023-04-24T00:18:07;20.70;63.30
20005;DHT22;69160;45.498;-73.582;2023-04-24T00:20:33;20.70;63.30
20005;DHT22;69160;45.498;-73.582;2023-04-24T00:23:01;20.70;63.20
20005;DHT22;69160;45.498;-73.582;2023-04-24T00:25:27;20.80;63.30
20005;DHT22;69160;45.498;-73.582;2023-04-24T00:27:53;20.70;63.20
20005;DHT22;69160;45.498;-73.582;2023-04-24T00:30:19;20.70;63.30
20005;DHT22;69160;45.498;-73.582;2023-04-24T00:32:46;20.70;63.20
20005;DHT22;69160;45.498;-73.582;2023-04-24T00:35:12;20.70;63.10
20005;DHT22;69160;45.498;-73.582;2023-04-24T00:37:38;20.70;63.10
20005;DHT22;69160;45.498;-73.582;2023-04-24T00:40:05;20.70;63.10
20005;DHT22;69160;45.498;-73.582;2023-04-24T00:42:32;20.70;63.00
20005;DHT22;69160;45.498;-73.582;2023-04-24T00:44:59;20.70;63.00
20005;DHT22;69160;45.498;-73.582;2023-04-24T00:47:27;20.70;63.00
20005;DHT22;69160;45.498;-73.582;2023-04-24T00:49:54;20.70;63.00
20005;DHT22;69160;45.498;-73.582;2023-04-24T00:52:20;20.70;63.00
20005;DHT22;69160;45.498;-73.582;2023-04-24T00:54:50;20.70;63.00
20005;DHT22;69160;45.498;-73.582;2023-04-24T00:57:16;20.70;63.00
20005;DHT22;69160;45.498;-73.582;2023-04-24T00:59:43;20.70;63.00
20005;DHT22;69160;45.498;-73.582;2023-04-24T01:02:10;20.70;63.10
20005;DHT22;69160;45.498;-73.582;2023-04-24T01:04:37;20.70;63.70
20005;DHT22;69160;45.498;-73.582;2023-04-24T01:07:04;20.70;63.80
20005;DHT22;69160;45.498;-73.582;2023-04-24T01:09:36;20.80;64.10
20005;DHT22;69160;45.498;-73.582;2023-04-24T01:12:03;20.70;64.00
20005;DHT22;69160;45.498;-73.582;2023-04-24T01:14:30;20.70;64.10
20005;DHT22;69160;45.498;-73.582;2023-04-24T01:16:56;20.70;64.00
20005;DHT22;69160;45.498;-73.582;2023-04-24T01:19:23;20.70;64.00
20005;DHT22;69160;45.498;-73.582;2023-04-24T01:21:51;20.70;64.00
20005;DHT22;69160;45.498;-73.582;2023-04-24T01:24:19;20.70;64.00
20005;DHT22;69160;45.498;-73.582;2023-04-24T01:26:46;20.70;63.90
20005;DHT22;69160;45.498;-73.582;2023-04-24T01:29:12;20.70;64.00
20005;DHT22;69160;45.498;-73.582;2023-04-24T01:31:39;20.70;63.70
20005;DHT22;69160;45.498;-73.582;2023-04-24T01:34:06;20.70;63.40
20005;DHT22;69160;45.498;-73.582;2023-04-24T01:36:35;20.70;63.30
20005;DHT22;69160;45.498;-73.582;2023-04-24T01:39:02;20.70;63.10
20005;DHT22;69160;45.498;-73.582;2023-04-24T01:41:30;20.70;63.00
20005;DHT22;69160;45.498;-73.582;2023-04-24T01:43:57;20.70;63.00
20005;DHT22;69160;45.498;-73.582;2023-04-24T01:46:24;20.70;62.90
20005;DHT22;69160;45.498;-73.582;2023-04-24T01:48:51;20.70;62.90
20005;DHT22;69160;45.498;-73.582;2023-04-24T01:51:18;20.60;62.80
20005;DHT22;69160;45.498;-73.582;2023-04-24T01:53:44;20.70;62.90
20005;DHT22;69160;45.498;-73.582;2023-04-24T01:56:11;20.70;62.80
20005;DHT22;69160;45.498;-73.582;2023-04-24T01:58:37;20.70;62.80
20005;DHT22;69160;45.498;-73.582;2023-04-24T02:01:03;20.70;62.80
20005;DHT22;69160;45.498;-73.582;2023-04-24T02:03:29;20.60;62.50
20005;DHT22;69160;45.498;-73.582;2023-04-24T02:05:56;20.60;62.40
20005;DHT22;69160;45.498;-73.582;2023-04-24T02:08:22;20.60;62.30
20005;DHT22;69160;45.498;-73.582;2023-04-24T02:10:48;20.60;62.30
20005;DHT22;69160;45.498;-73.582;2023-04-24T02:13:14;20.60;62.30
20005;DHT22;69160;45.498;-73.582;2023-04-24T02:15:40;20.50;62.10
20005;DHT22;69160;45.498;-73.582;2023-04-24T02:18:06;20.50;62.00
20005;DHT22;69160;45.498;-73.582;2023-04-24T02:20:33;20.60;62.00
20005;DHT22;69160;45.498;-73.582;2023-04-24T02:23:02;20.50;61.90
20005;DHT22;69160;45.498;-73.582;2023-04-24T02:25:28;20.50;61.90
20005;DHT22;69160;45.498;-73.582;2023-04-24T02:27:54;20.50;61.90
20005;DHT22;69160;45.498;-73.582;2023-04-24T02:30:21;20.50;61.80
20005;DHT22;69160;45.498;-73.582;2023-04-24T02:32:47;20.50;61.70
20005;DHT22;69160;45.498;-73.582;2023-04-24T02:35:13;20.50;61.80
20005;DHT22;69160;45.498;-73.582;2023-04-24T02:37:39;20.50;61.70
20005;DHT22;69160;45.498;-73.582;2023-04-24T02:40:06;20.50;61.70
20005;DHT22;69160;45.498;-73.582;2023-04-24T02:42:33;20.50;61.60
20005;DHT22;69160;45.498;-73.582;2023-04-24T02:44:59;20.50;61.60
20005;DHT22;69160;45.498;-73.582;2023-04-24T02:47:25;20.50;61.60
20005;DHT22;69160;45.498;-73.582;2023-04-24T02:49:51;20.40;61.50
20005;DHT22;69160;45.498;-73.582;2023-04-24T02:52:17;20.50;61.50
20005;DHT22;69160;45.498;-73.582;2023-04-24T02:54:43;20.40;61.50
20005;DHT22;69160;45.498;-73.582;2023-04-24T02:57:10;20.40;61.40
20005;DHT22;69160;45.498;-73.582;2023-04-24T02:59:36;20.40;61.40
20005;DHT22;69160;45.498;-73.582;2023-04-24T03:02:02;20.40;61.40
20005;DHT22;69160;45.498;-73.582;2023-04-24T03:04:29;20.40;61.30
20005;DHT22;69160;45.498;-73.582;2023-04-24T03:06:55;20.40;61.30
20005;DHT22;69160;45.498;-73.582;2023-04-24T03:09:22;20.40;61.30
20005;DHT22;69160;45.498;-73.582;2023-04-24T03:11:48;20.40;61.30
20005;DHT22;69160;45.498;-73.582;2023-04-24T03:14:15;20.40;61.30
20005;DHT22;69160;45.498;-73.582;2023-04-24T03:16:42;20.40;61.20
20005;DHT22;69160;45.498;-73.582;2023-04-24T03:19:08;20.40;61.10
20005;DHT22;69160;45.498;-73.582;2023-04-24T03:21:34;20.40;61.10
20005;DHT22;69160;45.498;-73.582;2023-04-24T03:24:01;20.40;61.10
20005;DHT22;69160;45.498;-73.582;2023-04-24T03:26:28;20.30;61.00
20005;DHT22;69160;45.498;-73.582;2023-04-24T03:28:54;20.30;61.00
20005;DHT22;69160;45.498;-73.582;2023-04-24T03:31:20;20.30;61.00
20005;DHT22;69160;45.498;-73.582;2023-04-24T03:33:46;20.30;61.00
20005;DHT22;69160;45.498;-73.582;2023-04-24T03:36:13;20.30;60.90
20005;DHT22;69160;45.498;-73.582;2023-04-24T03:38:39;20.30;60.90
20005;DHT22;69160;45.498;-73.582;2023-04-24T03:41:05;20.30;60.90
20005;DHT22;69160;45.498;-73.582;2023-04-24T03:43:31;20.30;60.90
20005;DHT22;69160;45.498;-73.582;2023-04-24T03:45:59;20.30;60.90
20005;DHT22;69160;45.498;-73.582;2023-04-24T03:48:25;20.30;61.00
20005;DHT22;69160;45.498;-73.582;2023-04-24T03:50:51;20.20;60.90
20005;DHT22;69160;45.498;-73.582;2023-04-24T03:53:17;20.20;60.90
20005;DHT22;69160;45.498;-73.582;2023-04-24T03:55:45;20.20;60.90
20005;DHT22;69160;45.498;-73.582;2023-04-24T03:58:12;20.20;60.80
20005;DHT22;69160;45.498;-73.582;2023-04-24T04:00:40;20.30;60.90
20005;DHT22;69160;45.498;-73.582;2023-04-24T04:03:06;20.20;60.80
20005;DHT22;69160;45.498;-73.582;2023-04-24T04:05:32;20.20;60.80
20005;DHT22;69160;45.498;-73.582;2023-04-24T04:07:59;20.20;60.80
20005;DHT22;69160;45.498;-73.582;2023-04-24T04:10:25;20.20;60.80
20005;DHT22;69160;45.498;-73.582;2023-04-24T04:12:51;20.20;60.80
20005;DHT22;69160;45.498;-73.582;2023-04-24T04:15:17;20.20;60.80
20005;DHT22;69160;45.498;-73.582;2023-04-24T04:17:43;20.20;60.70
20005;DHT22;69160;45.498;-73.582;2023-04-24T04:20:11;20.20;60.70
20005;DHT22;69160;45.498;-73.582;2023-04-24T04:22:37;20.20;60.70
20005;DHT22;69160;45.498;-73.582;2023-04-24T04:25:04;20.20;60.70
20005;DHT22;69160;45.498;-73.582;2023-04-24T04:27:30;20.20;60.80
20005;DHT22;69160;45.498;-73.582;2023-04-24T04:30:01;20.20;60.80
20005;DHT22;69160;45.498;-73.582;2023-04-24T04:32:36;20.10;60.70
20005;DHT22;69160;45.498;-73.582;2023-04-24T04:35:03;20.20;60.80
20005;DHT22;69160;45.498;-73.582;2023-04-24T04:37:33;20.20;60.90
20005;DHT22;69160;45.498;-73.582;2023-04-24T04:39:59;20.10;60.70
20005;DHT22;69160;45.498;-73.582;2023-04-24T04:42:26;20.20;60.80
20005;DHT22;69160;45.498;-73.582;2023-04-24T04:44:54;20.20;60.80
20005;DHT22;69160;45.498;-73.582;2023-04-24T04:47:22;20.10;60.70
20005;DHT22;69160;45.498;-73.582;2023-04-24T04:49:49;20.10;60.70
20005;DHT22;69160;45.498;-73.582;2023-04-24T04:52:18;20.10;60.70
20005;DHT22;69160;45.498;-73.582;2023-04-24T04:54:44;20.10;60.70
20005;DHT22;69160;45.498;-73.582;2023-04-24T04:57:10;20.10;60.70
20005;DHT22;69160;45.498;-73.582;2023-04-24T04:59:37;20.10;60.70
20005;DHT22;69160;45.498;-73.582;2023-04-24T05:02:04;20.10;60.70
20005;DHT22;69160;45.498;-73.582;2023-04-24T05:04:30;20.10;60.60
20005;DHT22;69160;45.498;-73.582;2023-04-24T05:06:56;20.10;60.70
20005;DHT22;69160;45.498;-73.582;2023-04-24T05:09:23;20.10;60.70
20005;DHT22;69160;45.498;-73.582;2023-04-24T05:11:49;20.10;60.60
20005;DHT22;69160;45.498;-73.582;2023-04-24T05:14:15;20.10;60.60
20005;DHT22;69160;45.498;-73.582;2023-04-24T05:16:43;20.10;60.60
20005;DHT22;69160;45.498;-73.582;2023-04-24T05:19:09;20.10;61.30
20005;DHT22;69160;45.498;-73.582;2023-04-24T05:21:37;20.10;61.40
20005;DHT22;69160;45.498;-73.582;2023-04-24T05:24:05;20.10;60.70
20005;DHT22;69160;45.498;-73.582;2023-04-24T05:26:31;20.10;60.70
20005;DHT22;69160;45.498;-73.582;2023-04-24T05:28:57;20.10;60.70
20005;DHT22;69160;45.498;-73.582;2023-04-24T05:31:23;20.10;60.70
20005;DHT22;69160;45.498;-73.582;2023-04-24T05:33:51;20.10;61.40
20005;DHT22;69160;45.498;-73.582;2023-04-24T05:36:17;20.10;60.70
20005;DHT22;69160;45.498;-73.582;2023-04-24T05:38:43;20.10;60.60
20005;DHT22;69160;45.498;-73.582;2023-04-24T05:41:09;20.00;60.60
20005;DHT22;69160;45.498;-73.582;2023-04-24T05:43:35;20.00;60.60
20005;DHT22;69160;45.498;-73.582;2023-04-24T05:46:01;20.10;60.70
20005;DHT22;69160;45.498;-73.582;2023-04-24T05:48:28;20.10;60.70
20005;DHT22;69160;45.498;-73.582;2023-04-24T05:50:54;20.10;60.70
20005;DHT22;69160;45.498;-73.582;2023-04-24T05:53:20;20.10;60.70
20005;DHT22;69160;45.498;-73.582;2023-04-24T05:55:47;20.00;60.50
20005;DHT22;69160;45.498;-73.582;2023-04-24T05:58:13;20.00;60.60
20005;DHT22;69160;45.498;-73.582;2023-04-24T06:00:40;20.00;60.70
20005;DHT22;69160;45.498;-73.582;2023-04-24T06:03:08;20.00;60.60
20005;DHT22;69160;45.498;-73.582;2023-04-24T06:05:34;20.00;60.50
20005;DHT22;69160;45.498;-73.582;2023-04-24T06:08:01;20.00;60.50
20005;DHT22;69160;45.498;-73.582;2023-04-24T06:10:27;20.00;60.60
20005;DHT22;69160;45.498;-73.582;2023-04-24T06:12:53;20.00;60.60
20005;DHT22;69160;45.498;-73.582;2023-04-24T06:15:22;20.00;60.60
20005;DHT22;69160;45.498;-73.582;2023-04-24T06:17:48;20.00;60.60
20005;DHT22;69160;45.498;-73.582;2023-04-24T06:20:14;20.00;60.60
20005;DHT22;69160;45.498;-73.582;2023-04-24T06:22:40;20.00;60.70
20005;DHT22;69160;45.498;-73.582;2023-04-24T06:25:07;20.00;60.60
20005;DHT22;69160;45.498;-73.582;2023-04-24T06:27:33;20.00;60.60
20005;DHT22;69160;45.498;-73.582;2023-04-24T06:29:59;20.00;60.70
20005;DHT22;69160;45.498;-73.582;2023-04-24T06:32:26;20.00;60.70
20005;DHT22;69160;45.498;-73.582;2023-04-24T06:34:53;20.00;60.60
20005;DHT22;69160;45.498;-73.582;2023-04-24T06:37:20;19.90;60.50
20005;DHT22;69160;45.498;-73.582;2023-04-24T06:39:46;19.90;60.60
20005;DHT22;69160;45.498;-73.582;2023-04-24T06:42:13;19.90;60.60
20005;DHT22;69160;45.498;-73.582;2023-04-24T06:44:39;19.90;60.60
20005;DHT22;69160;45.498;-73.582;2023-04-24T06:47:09;20.00;60.70
20005;DHT22;69160;45.498;-73.582;2023-04-24T06:49:37;19.90;60.70
20005;DHT22;69160;45.498;-73.582;2023-04-24T06:52:03;19.90;60.70
20005;DHT22;69160;45.498;-73.582;2023-04-24T06:54:30;19.90;60.60
20005;DHT22;69160;45.498;-73.582;2023-04-24T06:56:57;19.90;60.60
20005;DHT22;69160;45.498;-73.582;2023-04-24T06:59:26;19.90;60.60
20005;DHT22;69160;45.498;-73.582;2023-04-24T07:01:54;19.90;60.60
20005;DHT22;69160;45.498;-73.582;2023-04-24T07:04:20;19.90;60.60
20005;DHT22;69160;45.498;-73.582;2023-04-24T07:06:47;19.90;60.60
20005;DHT22;69160;45.498;-73.582;2023-04-24T07:09:15;19.90;60.50
20005;DHT22;69160;45.498;-73.582;2023-04-24T07:11:45;19.90;60.50
20005;DHT22;69160;45.498;-73.582;2023-04-24T07:14:11;19.90;60.50
20005;DHT22;69160;45.498;-73.582;2023-04-24T07:16:38;19.90;60.50
20005;DHT22;69160;45.498;-73.582;2023-04-24T07:19:04;19.90;60.50
20005;DHT22;69160;45.498;-73.582;2023-04-24T07:21:31;19.90;60.50
20005;DHT22;69160;45.498;-73.582;2023-04-24T07:23:58;19.90;60.40
20005;DHT22;69160;45.498;-73.582;2023-04-24T07:26:25;19.90;60.40
20005;DHT22;69160;45.498;-73.582;2023-04-24T07:28:52;19.90;60.40
20005;DHT22;69160;45.498;-73.582;2023-04-24T07:31:18;19.90;60.30
20005;DHT22;69160;45.498;-73.582;2023-04-24T07:33:44;19.90;60.30
20005;DHT22;69160;45.498;-73.582;2023-04-24T07:36:11;19.80;60.10
20005;DHT22;69160;45.498;-73.582;2023-04-24T07:38:45;19.80;60.10
20005;DHT22;69160;45.498;-73.582;2023-04-24T07:41:12;19.80;60.10
20005;DHT22;69160;45.498;-73.582;2023-04-24T07:43:38;19.80;60.10
20005;DHT22;69160;45.498;-73.582;2023-04-24T07:46:05;19.80;60.10
20005;DHT22;69160;45.498;-73.582;2023-04-24T07:48:31;19.80;60.20
20005;DHT22;69160;45.498;-73.582;2023-04-24T07:50:57;19.80;60.50
20005;DHT22;69160;45.498;-73.582;2023-04-24T07:53:23;19.80;60.10
20005;DHT22;69160;45.498;-73.582;2023-04-24T07:55:49;19.80;60.10
20005;DHT22;69160;45.498;-73.582;2023-04-24T07:58:16;19.90;60.20
20005;DHT22;69160;45.498;-73.582;2023-04-24T08:00:42;19.90;60.20
20005;DHT22;69160;45.498;-73.582;2023-04-24T08:03:08;19.90;60.10
20005;DHT22;69160;45.498;-73.582;2023-04-24T08:05:35;19.90;60.10
20005;DHT22;69160;45.498;-73.582;2023-04-24T08:08:01;19.90;60.10
20005;DHT22;69160;45.498;-73.582;2023-04-24T08:10:27;19.90;60.00
20005;DHT22;69160;45.498;-73.582;2023-04-24T08:12:53;19.90;59.90
20005;DHT22;69160;45.498;-73.582;2023-04-24T08:15:21;19.90;60.00
20005;DHT22;69160;45.498;-73.582;2023-04-24T08:17:47;19.90;59.90
20005;DHT22;69160;45.498;-73.582;2023-04-24T08:20:13;19.90;59.90
20005;DHT22;69160;45.498;-73.582;2023-04-24T08:22:40;19.90;59.90
20005;DHT22;69160;45.498;-73.582;2023-04-24T08:25:07;19.90;59.90
20005;DHT22;69160;45.498;-73.582;2023-04-24T08:27:33;19.90;60.00
20005;DHT22;69160;45.498;-73.582;2023-04-24T08:30:00;19.90;59.90
20005;DHT22;69160;45.498;-73.582;2023-04-24T08:32:26;19.90;60.00
20005;DHT22;69160;45.498;-73.582;2023-04-24T08:34:56;19.90;60.00
20005;DHT22;69160;45.498;-73.582;2023-04-24T08:37:23;19.90;60.00
20005;DHT22;69160;45.498;-73.582;2023-04-24T08:39:50;19.90;60.00
20005;DHT22;69160;45.498;-73.582;2023-04-24T08:42:18;19.90;60.10
20005;DHT22;69160;45.498;-73.582;2023-04-24T08:44:44;19.90;60.10
20005;DHT22;69160;45.498;-73.582;2023-04-24T08:47:11;20.00;60.10
20005;DHT22;69160;45.498;-73.582;2023-04-24T08:49:38;20.00;60.10
20005;DHT22;69160;45.498;-73.582;2023-04-24T08:52:05;20.00;60.10
20005;DHT22;69160;45.498;-73.582;2023-04-24T08:54:33;20.00;60.00
20005;DHT22;69160;45.498;-73.582;2023-04-24T08:57:01;20.10;60.00
20005;DHT22;69160;45.498;-73.582;2023-04-24T08:59:30;20.10;60.00
20005;DHT22;69160;45.498;-73.582;2023-04-24T09:01:57;20.10;60.00
20005;DHT22;69160;45.498;-73.582;2023-04-24T09:04:24;20.10;59.90
20005;DHT22;69160;45.498;-73.582;2023-04-24T09:06:58;20.10;59.90
20005;DHT22;69160;45.498;-73.582;2023-04-24T09:09:25;20.10;60.00
20005;DHT22;69160;45.498;-73.582;2023-04-24T09:11:52;20.10;59.90
20005;DHT22;69160;45.498;-73.582;2023-04-24T09:14:21;20.10;59.90
20005;DHT22;69160;45.498;-73.582;2023-04-24T09:16:49;20.10;59.90
20005;DHT22;69160;45.498;-73.582;2023-04-24T09:19:18;20.10;60.00
20005;DHT22;69160;45.498;-73.582;2023-04-24T09:21:46;20.10;59.90
20005;DHT22;69160;45.498;-73.582;2023-04-24T09:24:17;20.10;59.90
20005;DHT22;69160;45.498;-73.582;2023-04-24T09:26:44;20.10;60.00
20005;DHT22;69160;45.498;-73.582;2023-04-24T09:29:15;20.10;60.00
20005;DHT22;69160;45.498;-73.582;2023-04-24T09:31:42;20.00;60.00
20005;DHT22;69160;45.498;-73.582;2023-04-24T09:34:09;20.10;60.00
20005;DHT22;69160;45.498;-73.582;2023-04-24T09:36:37;20.00;59.90
20005;DHT22;69160;45.498;-73.582;2023-04-24T09:39:05;20.00;59.90
20005;DHT22;69160;45.498;-73.582;2023-04-24T09:41:33;20.10;60.00
20005;DHT22;69160;45.498;-73.582;2023-04-24T09:44:19;20.00;59.90
20005;DHT22;69160;45.498;-73.582;2023-04-24T09:46:51;20.10;59.90
20005;DHT22;69160;45.498;-73.582;2023-04-24T09:49:24;20.00;59.80
20005;DHT22;69160;45.498;-73.582;2023-04-24T09:51:51;20.00;59.90
20005;DHT22;69160;45.498;-73.582;2023-04-24T09:54:19;20.10;59.90
20005;DHT22;69160;45.498;-73.582;2023-04-24T09:56:50;20.00;59.80
20005;DHT22;69160;45.498;-73.582;2023-04-24T09:59:19;20.00;59.80
20005;DHT22;69160;45.498;-73.582;2023-04-24T10:01:46;20.10;59.80
20005;DHT22;69160;45.498;-73.582;2023-04-24T10:04:25;20.00;59.60
20005;DHT22;69160;45.498;-73.582;2023-04-24T10:06:53;20.00;59.70
20005;DHT22;69160;45.498;-73.582;2023-04-24T10:09:25;20.00;59.70
20005;DHT22;69160;45.498;-73.582;2023-04-24T10:11:53;20.10;59.80
20005;DHT22;69160;45.498;-73.582;2023-04-24T10:14:24;20.00;59.70
20005;DHT22;69160;45.498;-73.582;2023-04-24T10:16:53;20.00;59.60
20005;DHT22;69160;45.498;-73.582;2023-04-24T10:19:20;20.10;59.70
20005;DHT22;69160;45.498;-73.582;2023-04-24T10:21:47;20.10;59.70
20005;DHT22;69160;45.498;-73.582;2023-04-24T10:24:14;20.10;59.70
20005;DHT22;69160;45.498;-73.582;2023-04-24T10:26:42;20.00;59.60
20005;DHT22;69160;45.498;-73.582;2023-04-24T10:29:08;20.10;59.60
20005;DHT22;69160;45.498;-73.582;2023-04-24T10:31:38;20.10;59.60
20005;DHT22;69160;45.498;-73.582;2023-04-24T10:34:06;20.00;59.50
20005;DHT22;69160;45.498;-73.582;2023-04-24T10:36:40;20.10;59.60
20005;DHT22;69160;45.498;-73.582;2023-04-24T10:39:09;20.10;59.50
20005;DHT22;69160;45.498;-73.582;2023-04-24T10:41:37;20.10;59.60
20005;DHT22;69160;45.498;-73.582;2023-04-24T10:44:08;20.00;59.50
20005;DHT22;69160;45.498;-73.582;2023-04-24T10:46:35;20.10;59.60
20005;DHT22;69160;45.498;-73.582;2023-04-24T10:49:06;20.10;59.60
20005;DHT22;69160;45.498;-73.582;2023-04-24T10:51:51;20.10;59.60
20005;DHT22;69160;45.498;-73.582;2023-04-24T10:54:29;20.10;59.50
20005;DHT22;69160;45.498;-73.582;2023-04-24T10:59:47;20.10;59.60
20005;DHT22;69160;45.498;-73.582;2023-04-24T11:02:17;20.10;59.60
20005;DHT22;69160;45.498;-73.582;2023-04-24T11:04:44;20.10;59.70
20005;DHT22;69160;45.498;-73.582;2023-04-24T11:07:11;20.10;59.80
20005;DHT22;69160;45.498;-73.582;2023-04-24T11:09:38;20.10;59.80
20005;DHT22;69160;45.498;-73.582;2023-04-24T11:12:09;20.10;60.00
20005;DHT22;69160;45.498;-73.582;2023-04-24T11:17:36;20.20;60.40
20005;DHT22;69160;45.498;-73.582;2023-04-24T11:20:08;20.20;60.20
20005;DHT22;69160;45.498;-73.582;2023-04-24T11:22:36;20.20;60.10
20005;DHT22;69160;45.498;-73.582;2023-04-24T11:25:03;20.20;60.00
20005;DHT22;69160;45.498;-73.582;2023-04-24T11:27:32;20.20;60.00
20005;DHT22;69160;45.498;-73.582;2023-04-24T11:30:00;20.20;60.00
20005;DHT22;69160;45.498;-73.582;2023-04-24T11:32:38;20.20;59.90
20005;DHT22;69160;45.498;-73.582;2023-04-24T11:35:16;20.30;60.10
20005;DHT22;69160;45.498;-73.582;2023-04-24T11:37:44;20.20;59.90
20005;DHT22;69160;45.498;-73.582;2023-04-24T11:40:19;20.20;60.00
20005;DHT22;69160;45.498;-73.582;2023-04-24T11:42:47;20.20;60.00
20005;DHT22;69160;45.498;-73.582;2023-04-24T11:45:15;20.20;60.00
20005;DHT22;69160;45.498;-73.582;2023-04-24T11:47:43;20.20;60.00
20005;DHT22;69160;45.498;-73.582;2023-04-24T11:50:17;20.20;60.10
20005;DHT22;69160;45.498;-73.582;2023-04-24T11:52:45;20.10;60.00
20005;DHT22;69160;45.498;-73.582;2023-04-24T11:57:51;20.10;60.10
20005;DHT22;69160;45.498;-73.582;2023-04-24T12:00:20;20.10;60.10
20005;DHT22;69160;45.498;-73.582;2023-04-24T12:02:47;20.20;60.20
20005;DHT22;69160;45.498;-73.582;2023-04-24T12:05:25;20.20;60.10
20005;DHT22;69160;45.498;-73.582;2023-04-24T12:07:53;20.20;60.00
20005;DHT22;69160;45.498;-73.582;2023-04-24T12:10:27;20.20;60.00
20005;DHT22;69160;45.498;-73.582;2023-04-24T12:12:54;20.20;60.00
20005;DHT22;69160;45.498;-73.582;2023-04-24T12:15:21;20.20;60.00
20005;DHT22;69160;45.498;-73.582;2023-04-24T12:17:50;20.20;60.00
20005;DHT22;69160;45.498;-73.582;2023-04-24T12:20:17;20.20;60.10
20005;DHT22;69160;45.498;-73.582;2023-04-24T12:22:47;20.20;60.20
20005;DHT22;69160;45.498;-73.582;2023-04-24T12:25:14;20.20;60.20
20005;DHT22;69160;45.498;-73.582;2023-04-24T12:27:41;20.20;60.20
20005;DHT22;69160;45.498;-73.582;2023-04-24T12:30:14;20.20;60.90
20005;DHT22;69160;45.498;-73.582;2023-04-24T12:32:50;20.20;61.30
20005;DHT22;69160;45.498;-73.582;2023-04-24T12:35:21;20.10;60.70
20005;DHT22;69160;45.498;-73.582;2023-04-24T12:37:48;20.00;60.10
20005;DHT22;69160;45.498;-73.582;2023-04-24T12:40:15;20.00;60.50
20005;DHT22;69160;45.498;-73.582;2023-04-24T12:42:51;19.90;60.00
20005;DHT22;69160;45.498;-73.582;2023-04-24T12:45:18;19.80;60.40
20005;DHT22;69160;45.498;-73.582;2023-04-24T12:47:45;19.80;60.40
20005;DHT22;69160;45.498;-73.582;2023-04-24T12:50:14;19.80;60.40
20005;DHT22;69160;45.498;-73.582;2023-04-24T12:52:41;19.80;60.20
20005;DHT22;69160;45.498;-73.582;2023-04-24T12:55:08;19.90;61.50
20005;DHT22;69160;45.498;-73.582;2023-04-24T12:57:36;19.90;61.50
20005;DHT22;69160;45.498;-73.582;2023-04-24T13:00:04;20.00;61.50
20005;DHT22;69160;45.498;-73.582;2023-04-24T13:02:32;20.00;61.30
20005;DHT22;69160;45.498;-73.582;2023-04-24T13:04:59;20.00;61.10
20005;DHT22;69160;45.498;-73.582;2023-04-24T13:07:26;20.10;61.00
20005;DHT22;69160;45.498;-73.582;2023-04-24T13:09:54;20.10;61.30
20005;DHT22;69160;45.498;-73.582;2023-04-24T13:12:20;20.20;62.70
20005;DHT22;69160;45.498;-73.582;2023-04-24T13:14:47;20.20;64.50
20005;DHT22;69160;45.498;-73.582;2023-04-24T13:17:13;20.30;65.60
20005;DHT22;69160;45.498;-73.582;2023-04-24T13:19:41;20.20;63.70
20005;DHT22;69160;45.498;-73.582;2023-04-24T13:22:10;20.20;62.90
20005;DHT22;69160;45.498;-73.582;2023-04-24T13:24:36;20.20;62.20
20005;DHT22;69160;45.498;-73.582;2023-04-24T13:27:03;20.20;62.10
20005;DHT22;69160;45.498;-73.582;2023-04-24T13:29:29;20.20;62.30
20005;DHT22;69160;45.498;-73.582;2023-04-24T13:31:55;20.30;63.60
20005;DHT22;69160;45.498;-73.582;2023-04-24T13:34:23;20.40;64.20
20005;DHT22;69160;45.498;-73.582;2023-04-24T13:36:51;20.40;64.50
20005;DHT22;69160;45.498;-73.582;2023-04-24T13:39:17;20.40;63.60
20005;DHT22;69160;45.498;-73.582;2023-04-24T13:41:43;20.50;64.60
20005;DHT22;69160;45.498;-73.582;2023-04-24T13:44:10;20.50;64.70
20005;DHT22;69160;45.498;-73.582;2023-04-24T13:46:36;20.50;64.00
20005;DHT22;69160;45.498;-73.582;2023-04-24T13:49:02;20.50;64.10
20005;DHT22;69160;45.498;-73.582;2023-04-24T13:51:29;20.50;63.80
20005;DHT22;69160;45.498;-73.582;2023-04-24T13:53:56;20.50;64.60
20005;DHT22;69160;45.498;-73.582;2023-04-24T13:56:22;20.60;63.70
20005;DHT22;69160;45.498;-73.582;2023-04-24T13:58:49;20.60;63.70
20005;DHT22;69160;45.498;-73.582;2023-04-24T14:01:15;20.70;64.10
20005;DHT22;69160;45.498;-73.582;2023-04-24T14:03:42;20.70;63.80
20005;DHT22;69160;45.498;-73.582;2023-04-24T14:06:11;20.70;64.30
20005;DHT22;69160;45.498;-73.582;2023-04-24T14:08:37;20.80;64.30
20005;DHT22;69160;45.498;-73.582;2023-04-24T14:11:04;20.80;64.10
20005;DHT22;69160;45.498;-73.582;2023-04-24T14:13:30;20.80;64.20
20005;DHT22;69160;45.498;-73.582;2023-04-24T14:15:56;20.90;64.10
20005;DHT22;69160;45.498;-73.582;2023-04-24T14:18:23;20.90;64.10
20005;DHT22;69160;45.498;-73.582;2023-04-24T14:20:49;20.90;64.80
20005;DHT22;69160;45.498;-73.582;2023-04-24T14:23:16;20.90;64.00
20005;DHT22;69160;45.498;-73.582;2023-04-24T14:25:42;21.00;64.10
20005;DHT22;69160;45.498;-73.582;2023-04-24T14:28:09;20.90;63.80
20005;DHT22;69160;45.498;-73.582;2023-04-24T14:30:35;21.10;65.80
20005;DHT22;69160;45.498;-73.582;2023-04-24T14:33:03;21.20;66.10
20005;DHT22;69160;45.498;-73.582;2023-04-24T14:35:29;21.30;66.10
20005;DHT22;69160;45.498;-73.582;2023-04-24T14:37:59;21.30;63.40
20005;DHT22;69160;45.498;-73.582;2023-04-24T14:40:25;21.30;63.20
20005;DHT22;69160;45.498;-73.582;2023-04-24T14:42:51;21.20;63.10
20005;DHT22;69160;45.498;-73.582;2023-04-24T14:45:18;21.20;63.00
20005;DHT22;69160;45.498;-73.582;2023-04-24T14:47:44;21.20;63.00
20005;DHT22;69160;45.498;-73.582;2023-04-24T14:50:11;21.20;63.20
20005;DHT22;69160;45.498;-73.582;2023-04-24T14:52:38;21.20;62.80
20005;DHT22;69160;45.498;-73.582;2023-04-24T14:55:05;21.10;62.70
20005;DHT22;69160;45.498;-73.582;2023-04-24T14:57:33;21.10;62.80
20005;DHT22;69160;45.498;-73.582;2023-04-24T14:59:59;21.10;62.70
20005;DHT22;69160;45.498;-73.582;2023-04-24T15:02:25;21.10;62.90
20005;DHT22;69160;45.498;-73.582;2023-04-24T15:04:52;21.10;62.80
20005;DHT22;69160;45.498;-73.582;2023-04-24T15:07:18;21.10;63.00
20005;DHT22;69160;45.498;-73.582;2023-04-24T15:09:44;21.10;63.10
20005;DHT22;69160;45.498;-73.582;2023-04-24T15:12:12;21.10;63.20